Time,TemperatureF,DewpointF,PressureIn,WindDirection,WindDirectionDegrees,WindSpeedMPH,WindSpeedGustMPH,Humidity,HourlyPrecipIn,Conditions,Clouds,dailyrainin,SoftwareType,DateUTC
2013-05-15 00:02:00,47.7,37.9,29.89,NW,315,2.0,5.0,69,0.00,,,0.00,meteohub,2013-05-15 07:02:00,
2013-05-15 00:07:00,47.3,37.6,29.89,NW,321,0.0,3.0,69,0.00,,,0.00,meteohub,2013-05-15 07:07:00,
2013-05-15 00:12:00,46.9,37.6,29.89,ENE,64,0.0,3.0,70,0.00,,,0.00,meteohub,2013-05-15 07:12:00,
2013-05-15 00:17:00,46.8,37.2,29.89,ENE,64,0.0,3.0,69,0.00,,,0.00,meteohub,2013-05-15 07:17:00,
2013-05-15 00:22:00,46.2,37.8,29.89,ENE,64,0.0,3.0,72,0.00,,,0.00,meteohub,2013-05-15 07:22:00,
2013-05-15 00:27:00,45.7,37.6,29.89,ENE,64,0.0,3.0,73,0.00,,,0.00,meteohub,2013-05-15 07:27:00,
2013-05-15 00:37:00,44.4,37.4,29.89,ENE,64,0.0,2.0,76,0.00,,,0.00,meteohub,2013-05-15 07:37:00,
2013-05-15 00:42:00,44.1,37.4,29.89,ENE,64,0.0,2.0,77,0.00,,,0.00,meteohub,2013-05-15 07:42:00,
2013-05-15 00:47:00,43.9,37.2,29.89,ENE,64,0.0,2.0,77,0.00,,,0.00,meteohub,2013-05-15 07:47:00,
2013-05-15 00:52:00,43.7,37.0,29.89,ENE,64,1.0,2.0,77,0.00,,,0.00,meteohub,2013-05-15 07:52:00,
2013-05-15 00:57:00,43.5,36.9,29.88,ENE,64,1.0,2.0,77,0.00,,,0.00,meteohub,2013-05-15 07:57:00,
2013-05-15 01:02:00,43.3,36.7,29.88,ENE,64,0.0,2.0,77,0.00,,,0.00,meteohub,2013-05-15 08:02:00,
2013-05-15 01:07:00,43.2,36.7,29.88,SSE,159,3.0,3.0,78,0.00,,,0.00,meteohub,2013-05-15 08:07:00,
2013-05-15 01:12:00,43.3,36.7,29.88,ESE,116,1.0,5.0,77,0.00,,,0.00,meteohub,2013-05-15 08:12:00,
2013-05-15 01:22:00,43.3,36.3,29.88,SSE,161,1.0,5.0,76,0.00,,,0.00,meteohub,2013-05-15 08:22:00,
2013-05-15 01:27:00,43.2,36.1,29.88,SSE,161,2.0,4.0,76,0.00,,,0.00,meteohub,2013-05-15 08:27:00,
2013-05-15 01:32:00,42.8,36.5,29.88,SSE,162,1.0,3.0,78,0.00,,,0.00,meteohub,2013-05-15 08:32:00,
2013-05-15 01:37:00,42.4,36.1,29.88,SSE,162,1.0,4.0,78,0.00,,,0.00,meteohub,2013-05-15 08:37:00,
2013-05-15 01:42:00,42.3,36.0,29.88,SSE,162,1.0,4.0,78,0.00,,,0.00,meteohub,2013-05-15 08:42:00,
2013-05-15 01:47:00,42.1,35.8,29.88,SSE,162,0.0,4.0,78,0.00,,,0.00,meteohub,2013-05-15 08:47:00,
2013-05-15 01:52:00,41.7,36.0,29.88,SSE,162,0.0,2.0,80,0.00,,,0.00,meteohub,2013-05-15 08:52:00,
2013-05-15 01:57:00,41.5,35.8,29.88,SSE,162,0.0,2.0,80,0.00,,,0.00,meteohub,2013-05-15 08:57:00,
2013-05-15 02:02:00,41.2,35.8,29.88,SSE,162,0.0,1.0,81,0.00,,,0.00,meteohub,2013-05-15 09:02:00,
2013-05-15 02:07:00,40.8,35.4,29.88,SSE,162,0.0,0.0,81,0.00,,,0.00,meteohub,2013-05-15 09:07:00,
2013-05-15 02:12:00,40.5,35.4,29.88,SSE,162,0.0,0.0,82,0.00,,,0.00,meteohub,2013-05-15 09:12:00,
2013-05-15 02:17:00,40.3,35.6,29.88,SSE,162,0.0,0.0,83,0.00,,,0.00,meteohub,2013-05-15 09:17:00,
2013-05-15 02:27:00,39.6,35.1,29.88,SSE,162,0.0,0.0,84,0.00,,,0.00,meteohub,2013-05-15 09:27:00,
2013-05-15 02:37:00,39.4,34.9,29.88,SSE,162,0.0,1.0,84,0.00,,,0.00,meteohub,2013-05-15 09:37:00,
2013-05-15 02:42:00,39.2,35.1,29.88,SSE,162,0.0,1.0,85,0.00,,,0.00,meteohub,2013-05-15 09:42:00,
2013-05-15 02:47:00,39.0,34.9,29.88,SSE,162,0.0,0.0,85,0.00,,,0.00,meteohub,2013-05-15 09:47:00,
2013-05-15 02:57:00,38.7,34.9,29.88,SSE,162,0.0,3.0,86,0.00,,,0.00,meteohub,2013-05-15 09:57:00,
2013-05-15 03:02:00,38.1,34.0,29.88,SSE,162,0.0,3.0,85,0.00,,,0.00,meteohub,2013-05-15 10:02:00,
2013-05-15 03:07:00,37.8,34.0,29.88,SSE,162,0.0,3.0,86,0.00,,,0.00,meteohub,2013-05-15 10:07:00,
2013-05-15 03:12:00,37.6,34.0,29.88,SSE,162,0.0,1.0,87,0.00,,,0.00,meteohub,2013-05-15 10:12:00,
2013-05-15 03:17:00,37.6,34.3,29.88,SSE,162,0.0,1.0,88,0.00,,,0.00,meteohub,2013-05-15 10:17:00,
2013-05-15 03:22:00,37.6,34.3,29.88,SSE,162,0.0,1.0,88,0.00,,,0.00,meteohub,2013-05-15 10:22:00,
2013-05-15 03:27:00,37.8,34.5,29.88,SSE,162,0.0,1.0,88,0.00,,,0.00,meteohub,2013-05-15 10:27:00,
2013-05-15 03:32:00,38.1,34.5,29.88,SSE,162,0.0,1.0,87,0.00,,,0.00,meteohub,2013-05-15 10:32:00,
2013-05-15 03:37:00,38.5,34.9,29.89,SSE,162,0.0,1.0,87,0.00,,,0.00,meteohub,2013-05-15 10:37:00,
2013-05-15 03:42:00,38.5,34.9,29.88,SSE,162,0.0,1.0,87,0.00,,,0.00,meteohub,2013-05-15 10:42:00,
2013-05-15 03:47:00,38.1,34.5,29.89,SSE,162,0.0,1.0,87,0.00,,,0.00,meteohub,2013-05-15 10:47:00,
2013-05-15 03:52:00,37.9,34.7,29.88,SSE,162,0.0,1.0,88,0.00,,,0.00,meteohub,2013-05-15 10:52:00,
2013-05-15 03:57:00,37.9,34.7,29.89,SSE,162,0.0,1.0,88,0.00,,,0.00,meteohub,2013-05-15 10:57:00,
2013-05-15 04:02:00,37.8,34.5,29.89,SSE,162,0.0,0.0,88,0.00,,,0.00,meteohub,2013-05-15 11:02:00,
2013-05-15 04:07:00,37.6,34.3,29.89,SSE,162,0.0,0.0,88,0.00,,,0.00,meteohub,2013-05-15 11:07:00,
2013-05-15 04:17:00,37.8,34.5,29.88,SSE,162,0.0,2.0,88,0.00,,,0.00,meteohub,2013-05-15 11:17:00,
2013-05-15 04:22:00,37.8,34.2,29.89,SSE,162,0.0,2.0,87,0.00,,,0.00,meteohub,2013-05-15 11:22:00,
2013-05-15 04:27:00,37.8,34.2,29.88,SSE,162,0.0,2.0,87,0.00,,,0.00,meteohub,2013-05-15 11:27:00,
2013-05-15 04:32:00,37.6,34.3,29.88,SSE,162,0.0,2.0,88,0.00,,,0.00,meteohub,2013-05-15 11:32:00,
2013-05-15 04:47:00,37.4,34.2,29.88,SSE,162,0.0,1.0,88,0.00,,,0.00,meteohub,2013-05-15 11:47:00,
2013-05-15 04:52:00,37.4,34.2,29.88,SSE,162,0.0,1.0,88,0.00,,,0.00,meteohub,2013-05-15 11:52:00,
2013-05-15 04:57:00,37.4,34.5,29.88,SSE,162,0.0,1.0,89,0.00,,,0.00,meteohub,2013-05-15 11:57:00,
2013-05-15 05:02:00,37.2,34.3,29.88,SSE,162,0.0,0.0,89,0.00,,,0.00,meteohub,2013-05-15 12:02:00,
2013-05-15 05:07:00,37.2,34.3,29.88,SSE,162,0.0,0.0,89,0.00,,,0.00,meteohub,2013-05-15 12:07:00,
2013-05-15 05:12:00,37.2,34.3,29.88,SSE,162,0.0,0.0,89,0.00,,,0.00,meteohub,2013-05-15 12:12:00,
2013-05-15 05:17:00,37.6,34.9,29.88,SSE,162,0.0,2.0,90,0.00,,,0.00,meteohub,2013-05-15 12:17:00,
2013-05-15 05:27:00,37.6,34.9,29.89,SSE,162,0.0,2.0,90,0.00,,,0.00,meteohub,2013-05-15 12:27:00,
2013-05-15 05:32:00,37.6,34.9,29.89,SSE,162,0.0,2.0,90,0.00,,,0.00,meteohub,2013-05-15 12:32:00,
2013-05-15 05:37:00,37.6,34.9,29.89,SSE,162,0.0,2.0,90,0.00,,,0.00,meteohub,2013-05-15 12:37:00,
2013-05-15 05:42:00,37.6,34.9,29.89,SSE,162,0.0,0.0,90,0.00,,,0.00,meteohub,2013-05-15 12:42:00,
2013-05-15 05:47:00,37.6,34.9,29.89,SSE,162,0.0,0.0,90,0.00,,,0.00,meteohub,2013-05-15 12:47:00,
2013-05-15 05:57:00,38.1,35.2,29.89,SSE,162,0.0,0.0,89,0.00,,,0.00,meteohub,2013-05-15 12:57:00,
2013-05-15 06:02:00,38.5,35.2,29.89,SSE,162,1.0,0.0,88,0.00,,,0.00,meteohub,2013-05-15 13:02:00,
2013-05-15 06:07:00,39.0,35.4,29.89,WNW,288,1.0,2.0,87,0.00,,,0.00,meteohub,2013-05-15 13:07:00,
2013-05-15 06:12:00,39.2,35.6,29.89,WNW,288,0.0,3.0,87,0.00,,,0.00,meteohub,2013-05-15 13:12:00,
2013-05-15 06:17:00,39.4,35.6,29.89,WNW,288,0.0,3.0,86,0.00,,,0.00,meteohub,2013-05-15 13:17:00,
2013-05-15 06:27:00,39.6,36.3,29.89,WNW,287,0.0,3.0,88,0.00,,,0.00,meteohub,2013-05-15 13:27:00,
2013-05-15 06:32:00,39.6,36.5,29.89,WNW,287,0.0,3.0,89,0.00,,,0.00,meteohub,2013-05-15 13:32:00,
2013-05-15 06:37:00,39.7,36.1,29.90,WNW,287,0.0,3.0,87,0.00,,,0.00,meteohub,2013-05-15 13:37:00,
2013-05-15 06:42:00,39.9,36.1,29.90,WNW,287,0.0,1.0,86,0.00,,,0.00,meteohub,2013-05-15 13:42:00,
2013-05-15 06:47:00,40.3,36.1,29.90,WNW,287,0.0,0.0,85,0.00,,,0.00,meteohub,2013-05-15 13:47:00,
2013-05-15 06:52:00,40.6,36.0,29.90,WNW,287,0.0,0.0,83,0.00,,,0.00,meteohub,2013-05-15 13:52:00,
2013-05-15 06:57:00,40.8,35.8,29.90,WNW,287,0.0,0.0,82,0.00,,,0.00,meteohub,2013-05-15 13:57:00,
2013-05-15 07:02:00,41.2,36.1,29.90,WNW,287,0.0,0.0,82,0.00,,,0.00,meteohub,2013-05-15 14:02:00,
2013-05-15 07:07:00,41.5,36.1,29.90,WNW,287,0.0,0.0,81,0.00,,,0.00,meteohub,2013-05-15 14:07:00,
2013-05-15 07:12:00,41.7,36.3,29.90,WNW,287,0.0,0.0,81,0.00,,,0.00,meteohub,2013-05-15 14:12:00,
2013-05-15 07:17:00,42.1,36.7,29.90,WNW,287,1.0,0.0,81,0.00,,,0.00,meteohub,2013-05-15 14:17:00,
2013-05-15 07:22:00,42.3,37.2,29.91,WNW,287,0.0,1.0,82,0.00,,,0.00,meteohub,2013-05-15 14:22:00,
2013-05-15 07:27:00,42.4,36.7,29.90,WNW,287,0.0,2.0,80,0.00,,,0.00,meteohub,2013-05-15 14:27:00,
2013-05-15 07:32:00,42.4,36.3,29.90,WNW,287,0.0,2.0,79,0.00,,,0.00,meteohub,2013-05-15 14:32:00,
2013-05-15 07:42:00,43.2,36.7,29.90,WNW,287,0.0,1.0,78,0.00,,,0.00,meteohub,2013-05-15 14:42:00,
2013-05-15 07:57:00,44.4,37.0,29.89,WNW,287,0.0,0.0,75,0.00,,,0.00,meteohub,2013-05-15 14:57:00,
2013-05-15 08:12:00,45.1,37.9,29.89,WNW,287,2.0,3.0,76,0.00,,,0.00,meteohub,2013-05-15 15:12:00,
2013-05-15 08:17:00,45.3,38.5,29.88,WNW,287,2.0,3.0,77,0.00,,,0.00,meteohub,2013-05-15 15:17:00,
2013-05-15 08:22:00,46.0,38.3,29.89,WNW,288,1.0,3.0,74,0.00,,,0.00,meteohub,2013-05-15 15:22:00,
2013-05-15 08:27:00,46.6,38.5,29.88,WNW,288,2.0,3.0,73,0.00,,,0.00,meteohub,2013-05-15 15:27:00,
2013-05-15 08:37:00,47.7,39.0,29.88,NW,307,1.0,4.0,72,0.00,,,0.00,meteohub,2013-05-15 15:37:00,
2013-05-15 08:47:00,48.6,38.8,29.88,NW,306,1.0,4.0,69,0.00,,,0.00,meteohub,2013-05-15 15:47:00,
2013-05-15 08:57:00,49.5,39.4,29.87,NW,306,0.0,3.0,68,0.00,,,0.00,meteohub,2013-05-15 15:57:00,
2013-05-15 09:02:00,49.8,38.8,29.87,NW,306,1.0,3.0,66,0.00,,,0.00,meteohub,2013-05-15 16:02:00,
2013-05-15 09:07:00,50.4,39.4,29.87,NW,306,2.0,3.0,66,0.00,,,0.00,meteohub,2013-05-15 16:07:00,
2013-05-15 09:22:00,50.7,39.0,29.86,NW,306,2.0,4.0,64,0.00,,,0.00,meteohub,2013-05-15 16:22:00,
2013-05-15 09:37:00,52.3,39.7,29.86,NW,306,1.0,4.0,62,0.00,,,0.00,meteohub,2013-05-15 16:37:00,
2013-05-15 09:42:00,52.7,39.6,29.86,NW,306,3.0,4.0,61,0.00,,,0.00,meteohub,2013-05-15 16:42:00,
2013-05-15 09:47:00,53.1,39.6,29.86,NW,306,2.0,4.0,60,0.00,,,0.00,meteohub,2013-05-15 16:47:00,
2013-05-15 09:52:00,53.8,41.9,29.86,West,280,5.0,5.0,64,0.00,,,0.00,meteohub,2013-05-15 16:52:00,
2013-05-15 09:57:00,54.7,41.9,29.86,NW,305,4.0,6.0,62,0.00,,,0.00,meteohub,2013-05-15 16:57:00,
2013-05-15 10:02:00,55.4,41.4,29.85,West,273,3.0,6.0,59,0.00,,,0.00,meteohub,2013-05-15 17:02:00,
2013-05-15 10:12:00,56.1,41.2,29.85,WNW,284,4.0,5.0,57,0.00,,,0.00,meteohub,2013-05-15 17:12:00,
2013-05-15 10:17:00,56.8,41.7,29.84,West,278,3.0,6.0,57,0.00,,,0.00,meteohub,2013-05-15 17:17:00,
2013-05-15 10:22:00,57.9,41.4,29.84,NW,307,4.0,6.0,54,0.00,,,0.00,meteohub,2013-05-15 17:22:00,
2013-05-15 10:27:00,58.8,40.8,29.84,WNW,291,5.0,5.0,51,0.00,,,0.00,meteohub,2013-05-15 17:27:00,
2013-05-15 10:32:00,59.4,39.7,29.84,West,271,4.0,8.0,48,0.00,,,0.00,meteohub,2013-05-15 17:32:00,
2013-05-15 10:37:00,59.7,39.9,29.83,WNW,294,4.0,8.0,48,0.00,,,0.00,meteohub,2013-05-15 17:37:00,
2013-05-15 10:47:00,61.2,41.4,29.83,West,273,4.0,7.0,48,0.00,,,0.00,meteohub,2013-05-15 17:47:00,
2013-05-15 10:52:00,62.1,38.7,29.82,WNW,289,4.0,6.0,42,0.00,,,0.00,meteohub,2013-05-15 17:52:00,
2013-05-15 11:02:00,63.1,37.8,29.81,West,268,3.0,6.0,39,0.00,,,0.00,meteohub,2013-05-15 18:02:00,
2013-05-15 11:07:00,64.0,38.7,29.81,NW,319,1.0,6.0,39,0.00,,,0.00,meteohub,2013-05-15 18:07:00,
2013-05-15 11:22:00,65.1,34.5,29.80,WSW,257,4.0,7.0,32,0.00,,,0.00,meteohub,2013-05-15 18:22:00,
2013-05-15 11:27:00,64.9,37.4,29.80,NW,311,4.0,7.0,36,0.00,,,0.00,meteohub,2013-05-15 18:27:00,
2013-05-15 11:32:00,64.8,33.4,29.79,West,279,3.0,7.0,31,0.00,,,0.00,meteohub,2013-05-15 18:32:00,
2013-05-15 11:37:00,64.8,32.5,29.79,WNW,301,0.0,7.0,30,0.00,,,0.00,meteohub,2013-05-15 18:37:00,
2013-05-15 11:47:00,64.6,35.6,29.78,West,278,3.0,6.0,34,0.00,,,0.00,meteohub,2013-05-15 18:47:00,
2013-05-15 11:52:00,64.2,32.9,29.78,West,265,2.0,4.0,31,0.00,,,0.00,meteohub,2013-05-15 18:52:00,
2013-05-15 11:57:00,64.2,34.5,29.78,WSW,249,3.0,4.0,33,0.00,,,0.00,meteohub,2013-05-15 18:57:00,
2013-05-15 12:02:00,64.4,36.1,29.78,West,261,7.0,7.0,35,0.00,,,0.00,meteohub,2013-05-15 19:02:00,
2013-05-15 12:07:00,64.2,38.7,29.78,West,279,6.0,13.0,39,0.00,,,0.00,meteohub,2013-05-15 19:07:00,
2013-05-15 12:12:00,64.4,38.3,29.78,NW,315,4.0,13.0,38,0.00,,,0.00,meteohub,2013-05-15 19:12:00,
2013-05-15 12:17:00,64.9,36.7,29.78,WSW,248,5.0,13.0,35,0.00,,,0.00,meteohub,2013-05-15 19:17:00,
2013-05-15 12:22:00,65.1,38.1,29.78,WSW,238,5.0,10.0,37,0.00,,,0.00,meteohub,2013-05-15 19:22:00,
2013-05-15 12:27:00,65.3,35.4,29.78,WSW,238,4.0,10.0,33,0.00,,,0.00,meteohub,2013-05-15 19:27:00,
2013-05-15 12:32:00,65.3,36.9,29.77,West,274,4.0,10.0,35,0.00,,,0.00,meteohub,2013-05-15 19:32:00,
2013-05-15 12:37:00,65.7,37.2,29.77,NW,318,4.0,10.0,35,0.00,,,0.00,meteohub,2013-05-15 19:37:00,
2013-05-15 12:47:00,66.7,36.7,29.77,NW,322,4.0,6.0,33,0.00,,,0.00,meteohub,2013-05-15 19:47:00,
2013-05-15 12:52:00,66.9,34.5,29.76,WNW,291,5.0,7.0,30,0.00,,,0.00,meteohub,2013-05-15 19:52:00,
2013-05-15 13:07:00,68.0,34.5,29.76,NW,324,2.0,8.0,29,0.00,,,0.00,meteohub,2013-05-15 20:07:00,
2013-05-15 13:12:00,67.5,32.4,29.75,North,0,1.0,10.0,27,0.00,,,0.00,meteohub,2013-05-15 20:12:00,
2013-05-15 13:22:00,66.0,36.9,29.76,WNW,298,5.0,15.0,34,0.00,,,0.00,meteohub,2013-05-15 20:22:00,
2013-05-15 13:27:00,65.7,36.5,29.76,West,276,7.0,15.0,34,0.00,,,0.00,meteohub,2013-05-15 20:27:00,
2013-05-15 13:32:00,65.1,37.6,29.76,NW,315,6.0,15.0,36,0.00,,,0.00,meteohub,2013-05-15 20:32:00,
2013-05-15 13:37:00,64.9,34.3,29.76,WSW,237,6.0,14.0,32,0.00,,,0.00,meteohub,2013-05-15 20:37:00,
2013-05-15 13:42:00,64.6,34.9,29.76,SW,235,8.0,18.0,33,0.00,,,0.00,meteohub,2013-05-15 20:42:00,
2013-05-15 13:47:00,64.6,35.6,29.76,WSW,243,8.0,18.0,34,0.00,,,0.00,meteohub,2013-05-15 20:47:00,
2013-05-15 13:52:00,64.8,35.8,29.76,WSW,257,7.0,18.0,34,0.00,,,0.00,meteohub,2013-05-15 20:52:00,
2013-05-15 13:57:00,65.5,36.3,29.76,WSW,258,2.0,15.0,34,0.00,,,0.00,meteohub,2013-05-15 20:57:00,
2013-05-15 14:02:00,65.8,35.2,29.76,NW,307,7.0,13.0,32,0.00,,,0.00,meteohub,2013-05-15 21:02:00,
2013-05-15 14:07:00,65.7,35.1,29.76,NW,319,8.0,14.0,32,0.00,,,0.00,meteohub,2013-05-15 21:07:00,
2013-05-15 14:12:00,65.7,36.5,29.76,SW,229,9.0,14.0,34,0.00,,,0.00,meteohub,2013-05-15 21:12:00,
2013-05-15 14:22:00,64.0,34.3,29.76,SW,226,7.0,14.0,33,0.00,,,0.00,meteohub,2013-05-15 21:22:00,
2013-05-15 14:32:00,63.9,34.9,29.76,SW,233,8.0,14.0,34,0.00,,,0.00,meteohub,2013-05-15 21:32:00,
2013-05-15 14:37:00,63.9,38.5,29.75,SW,225,2.0,12.0,39,0.00,,,0.00,meteohub,2013-05-15 21:37:00,
2013-05-15 14:42:00,64.2,33.8,29.75,SW,228,6.0,12.0,32,0.00,,,0.00,meteohub,2013-05-15 21:42:00,
2013-05-15 14:47:00,64.2,36.0,29.75,WSW,250,1.0,11.0,35,0.00,,,0.00,meteohub,2013-05-15 21:47:00,
2013-05-15 14:52:00,64.6,34.0,29.75,West,280,10.0,10.0,32,0.00,,,0.00,meteohub,2013-05-15 21:52:00,
2013-05-15 14:57:00,64.6,32.4,29.75,WNW,285,7.0,10.0,30,0.00,,,0.00,meteohub,2013-05-15 21:57:00,
2013-05-15 15:02:00,64.9,32.7,29.75,West,269,4.0,10.0,30,0.00,,,0.00,meteohub,2013-05-15 22:02:00,
2013-05-15 15:07:00,65.3,33.8,29.75,WSW,248,5.0,10.0,31,0.00,,,0.00,meteohub,2013-05-15 22:07:00,
2013-05-15 15:22:00,65.1,35.2,29.75,West,262,10.0,16.0,33,0.00,,,0.00,meteohub,2013-05-15 22:22:00,
2013-05-15 15:27:00,64.2,35.2,29.76,WNW,284,9.0,16.0,34,0.00,,,0.00,meteohub,2013-05-15 22:27:00,
2013-05-15 15:32:00,63.9,36.3,29.76,NW,311,7.0,16.0,36,0.00,,,0.00,meteohub,2013-05-15 22:32:00,
2013-05-15 15:37:00,63.7,35.6,29.77,WNW,296,4.0,16.0,35,0.00,,,0.00,meteohub,2013-05-15 22:37:00,
2013-05-15 15:47:00,64.0,36.5,29.76,WNW,298,4.0,16.0,36,0.00,,,0.00,meteohub,2013-05-15 22:47:00,
2013-05-15 15:52:00,64.2,34.5,29.76,NW,315,8.0,15.0,33,0.00,,,0.00,meteohub,2013-05-15 22:52:00,
2013-05-15 15:57:00,64.0,35.8,29.76,WNW,282,9.0,15.0,35,0.00,,,0.00,meteohub,2013-05-15 22:57:00,
2013-05-15 16:12:00,63.3,34.5,29.75,WNW,295,6.0,13.0,34,0.00,,,0.00,meteohub,2013-05-15 23:12:00,
2013-05-15 16:17:00,63.3,34.5,29.76,NW,307,2.0,11.0,34,0.00,,,0.00,meteohub,2013-05-15 23:17:00,
2013-05-15 16:27:00,62.4,35.8,29.76,NW,304,4.0,13.0,37,0.00,,,0.00,meteohub,2013-05-15 23:27:00,
2013-05-15 16:32:00,61.9,36.0,29.76,NW,308,5.0,13.0,38,0.00,,,0.00,meteohub,2013-05-15 23:32:00,
2013-05-15 16:37:00,61.3,34.9,29.76,ENE,65,4.0,13.0,37,0.00,,,0.00,meteohub,2013-05-15 23:37:00,
2013-05-15 16:42:00,61.3,34.9,29.76,WSW,237,3.0,12.0,37,0.00,,,0.00,meteohub,2013-05-15 23:42:00,
2013-05-15 16:47:00,61.3,35.6,29.76,West,275,2.0,12.0,38,0.00,,,0.00,meteohub,2013-05-15 23:47:00,
2013-05-15 16:52:00,61.5,35.6,29.76,WNW,296,3.0,10.0,38,0.00,,,0.00,meteohub,2013-05-15 23:52:00,
2013-05-15 16:57:00,61.9,36.0,29.76,WNW,303,4.0,10.0,38,0.00,,,0.00,meteohub,2013-05-15 23:57:00,
2013-05-15 17:02:00,61.9,36.7,29.75,NNE,26,3.0,7.0,39,0.00,,,0.00,meteohub,2013-05-16 00:02:00,
2013-05-15 17:07:00,62.1,36.1,29.75,NW,309,6.0,8.0,38,0.00,,,0.00,meteohub,2013-05-16 00:07:00,
2013-05-15 17:17:00,61.9,36.0,29.75,West,275,4.0,7.0,38,0.00,,,0.00,meteohub,2013-05-16 00:17:00,
2013-05-15 17:22:00,61.5,36.3,29.75,ESE,105,5.0,11.0,39,0.00,,,0.00,meteohub,2013-05-16 00:22:00,
2013-05-15 17:27:00,61.3,36.9,29.75,NNW,333,1.0,11.0,40,0.00,,,0.00,meteohub,2013-05-16 00:27:00,
2013-05-15 17:32:00,61.0,36.5,29.75,NW,312,3.0,11.0,40,0.00,,,0.00,meteohub,2013-05-16 00:32:00,
2013-05-15 17:37:00,60.4,36.7,29.75,NE,56,3.0,11.0,41,0.00,,,0.00,meteohub,2013-05-16 00:37:00,
2013-05-15 17:42:00,60.3,36.5,29.75,East,92,1.0,9.0,41,0.00,,,0.00,meteohub,2013-05-16 00:42:00,
2013-05-15 17:52:00,59.7,36.5,29.74,SSW,199,3.0,9.0,42,0.00,,,0.00,meteohub,2013-05-16 00:52:00,
2013-05-15 17:57:00,59.5,35.8,29.75,NE,50,4.0,9.0,41,0.00,,,0.00,meteohub,2013-05-16 00:57:00,
2013-05-15 18:02:00,59.5,37.0,29.75,SSE,153,7.0,12.0,43,0.00,,,0.00,meteohub,2013-05-16 01:02:00,
2013-05-15 18:07:00,59.4,37.4,29.75,ENE,77,5.0,12.0,44,0.00,,,0.00,meteohub,2013-05-16 01:07:00,
2013-05-15 18:12:00,59.2,37.2,29.75,ESE,115,2.0,12.0,44,0.00,,,0.00,meteohub,2013-05-16 01:12:00,
2013-05-15 18:17:00,59.2,37.2,29.75,ESE,119,3.0,10.0,44,0.00,,,0.00,meteohub,2013-05-16 01:17:00,
2013-05-15 18:27:00,58.3,37.0,29.75,ESE,117,3.0,11.0,45,0.00,,,0.00,meteohub,2013-05-16 01:27:00,
2013-05-15 18:32:00,58.1,36.9,29.75,East,79,6.0,11.0,45,0.00,,,0.00,meteohub,2013-05-16 01:32:00,
2013-05-15 18:42:00,58.1,35.8,29.75,SE,133,4.0,9.0,43,0.00,,,0.00,meteohub,2013-05-16 01:42:00,
2013-05-15 18:52:00,58.1,36.3,29.76,SE,132,1.0,8.0,44,0.00,,,0.00,meteohub,2013-05-16 01:52:00,
2013-05-15 19:17:00,56.8,38.5,29.75,East,93,3.0,15.0,50,0.00,,,0.00,meteohub,2013-05-16 02:17:00,
2013-05-15 19:22:00,56.7,38.7,29.75,SSE,148,2.0,14.0,51,0.00,,,0.00,meteohub,2013-05-16 02:22:00,
2013-05-15 19:27:00,56.1,40.1,29.75,SE,136,7.0,14.0,55,0.00,,,0.00,meteohub,2013-05-16 02:27:00,
2013-05-15 19:32:00,55.6,39.2,29.75,SSE,163,6.0,11.0,54,0.00,,,0.00,meteohub,2013-05-16 02:32:00,
2013-05-15 19:37:00,55.6,39.2,29.75,East,84,3.0,11.0,54,0.00,,,0.00,meteohub,2013-05-16 02:37:00,
2013-05-15 19:47:00,55.4,39.6,29.76,East,99,0.0,9.0,55,0.00,,,0.00,meteohub,2013-05-16 02:47:00,
2013-05-15 19:52:00,55.0,38.3,29.76,East,94,3.0,9.0,53,0.00,,,0.00,meteohub,2013-05-16 02:52:00,
2013-05-15 20:02:00,54.9,38.1,29.76,ESE,109,2.0,8.0,53,0.00,,,0.00,meteohub,2013-05-16 03:02:00,
2013-05-15 20:07:00,54.5,40.1,29.77,ESE,109,0.0,8.0,58,0.00,,,0.00,meteohub,2013-05-16 03:07:00,
2013-05-15 20:12:00,54.0,38.7,29.77,ESE,109,2.0,6.0,56,0.00,,,0.00,meteohub,2013-05-16 03:12:00,
2013-05-15 20:17:00,53.8,37.9,29.77,East,94,2.0,5.0,55,0.00,,,0.00,meteohub,2013-05-16 03:17:00,
2013-05-15 20:22:00,53.4,37.6,29.76,East,87,5.0,5.0,55,0.00,,,0.00,meteohub,2013-05-16 03:22:00,
2013-05-15 20:27:00,53.6,37.8,29.76,ESE,105,4.0,7.0,55,0.00,,,0.00,meteohub,2013-05-16 03:27:00,
2013-05-15 20:32:00,52.5,38.7,29.76,South,187,1.0,7.0,59,0.00,,,0.00,meteohub,2013-05-16 03:32:00,
2013-05-15 20:42:00,50.9,38.8,29.77,South,187,0.0,5.0,63,0.00,,,0.00,meteohub,2013-05-16 03:42:00,
2013-05-15 20:47:00,50.4,38.3,29.78,South,187,0.0,3.0,63,0.00,,,0.00,meteohub,2013-05-16 03:47:00,
2013-05-15 21:02:00,48.7,39.4,29.78,South,187,0.0,3.0,70,0.00,,,0.00,meteohub,2013-05-16 04:02:00,
2013-05-15 21:07:00,48.2,39.2,29.78,WNW,298,1.0,1.0,71,0.00,,,0.00,meteohub,2013-05-16 04:07:00,
2013-05-15 21:12:00,48.0,38.3,29.79,WNW,299,2.0,3.0,69,0.00,,,0.00,meteohub,2013-05-16 04:12:00,
2013-05-15 21:17:00,48.0,38.3,29.79,WNW,299,1.0,3.0,69,0.00,,,0.00,meteohub,2013-05-16 04:17:00,
2013-05-15 21:22:00,47.8,38.5,29.79,West,278,0.0,3.0,70,0.00,,,0.00,meteohub,2013-05-16 04:22:00,
2013-05-15 21:27:00,47.7,39.4,29.79,WSW,249,1.0,3.0,73,0.00,,,0.00,meteohub,2013-05-16 04:27:00,
2013-05-15 21:32:00,47.3,39.0,29.80,WNW,301,0.0,3.0,73,0.00,,,0.00,meteohub,2013-05-16 04:32:00,
2013-05-15 21:37:00,46.9,38.3,29.80,WNW,301,0.0,3.0,72,0.00,,,0.00,meteohub,2013-05-16 04:37:00,
2013-05-15 21:42:00,46.8,38.5,29.80,WNW,301,0.0,3.0,73,0.00,,,0.00,meteohub,2013-05-16 04:42:00,
2013-05-15 21:47:00,46.6,38.1,29.80,WNW,301,0.0,0.0,72,0.00,,,0.00,meteohub,2013-05-16 04:47:00,
2013-05-15 21:52:00,46.4,38.5,29.81,WNW,301,0.0,3.0,74,0.00,,,0.00,meteohub,2013-05-16 04:52:00,
2013-05-15 21:57:00,46.4,38.5,29.80,WNW,301,0.0,3.0,74,0.00,,,0.00,meteohub,2013-05-16 04:57:00,
2013-05-15 22:02:00,46.2,38.5,29.80,WNW,301,0.0,2.0,74,0.00,,,0.00,meteohub,2013-05-16 05:02:00,
2013-05-15 22:07:00,46.0,38.3,29.80,ENE,73,5.0,5.0,74,0.00,,,0.00,meteohub,2013-05-16 05:07:00,
2013-05-15 22:12:00,45.9,37.8,29.80,NE,53,0.0,7.0,73,0.00,,,0.00,meteohub,2013-05-16 05:12:00,
2013-05-15 22:17:00,45.7,37.6,29.79,East,80,3.0,8.0,73,0.00,,,0.00,meteohub,2013-05-16 05:17:00,
2013-05-15 22:22:00,45.3,37.9,29.80,East,81,0.0,8.0,75,0.00,,,0.00,meteohub,2013-05-16 05:22:00,
2013-05-15 22:27:00,44.8,37.4,29.80,East,81,0.0,7.0,75,0.00,,,0.00,meteohub,2013-05-16 05:27:00,
2013-05-15 22:32:00,44.4,37.4,29.80,East,81,0.0,7.0,76,0.00,,,0.00,meteohub,2013-05-16 05:32:00,
2013-05-15 22:37:00,44.2,37.2,29.80,East,81,1.0,2.0,76,0.00,,,0.00,meteohub,2013-05-16 05:37:00,
2013-05-15 22:42:00,44.2,37.2,29.79,East,81,0.0,5.0,76,0.00,,,0.00,meteohub,2013-05-16 05:42:00,
2013-05-15 22:47:00,44.2,37.2,29.79,East,81,1.0,5.0,76,0.00,,,0.00,meteohub,2013-05-16 05:47:00,
2013-05-15 22:52:00,43.9,37.4,29.80,SW,221,0.0,5.0,78,0.00,,,0.00,meteohub,2013-05-16 05:52:00,
2013-05-15 22:57:00,43.2,37.0,29.80,SW,221,0.0,3.0,79,0.00,,,0.00,meteohub,2013-05-16 05:57:00,
2013-05-15 23:02:00,43.2,37.0,29.81,SW,221,0.0,3.0,79,0.00,,,0.00,meteohub,2013-05-16 06:02:00,
2013-05-15 23:07:00,42.8,36.7,29.81,SW,221,0.0,3.0,79,0.00,,,0.00,meteohub,2013-05-16 06:07:00,
2013-05-15 23:12:00,42.6,36.9,29.81,SW,221,2.0,2.0,80,0.00,,,0.00,meteohub,2013-05-16 06:12:00,
2013-05-15 23:17:00,42.3,36.9,29.81,SW,221,1.0,3.0,81,0.00,,,0.00,meteohub,2013-05-16 06:17:00,
2013-05-15 23:22:00,42.3,36.9,29.82,SW,221,0.0,3.0,81,0.00,,,0.00,meteohub,2013-05-16 06:22:00,
2013-05-15 23:27:00,42.1,37.0,29.81,SW,221,2.0,3.0,82,0.00,,,0.00,meteohub,2013-05-16 06:27:00,
2013-05-15 23:32:00,41.7,36.9,29.81,SSE,168,2.0,2.0,83,0.00,,,0.00,meteohub,2013-05-16 06:32:00,
2013-05-15 23:37:00,41.5,36.7,29.81,SSE,167,0.0,3.0,83,0.00,,,0.00,meteohub,2013-05-16 06:37:00,
2013-05-15 23:42:00,41.5,36.7,29.81,SSE,167,2.0,3.0,83,0.00,,,0.00,meteohub,2013-05-16 06:42:00,
2013-05-15 23:47:00,41.5,36.7,29.81,SSE,167,0.0,3.0,83,0.00,,,0.00,meteohub,2013-05-16 06:47:00,
2013-05-15 23:52:00,41.4,36.5,29.81,SSE,167,2.0,3.0,83,0.00,,,0.00,meteohub,2013-05-16 06:52:00,
2013-05-15 23:57:00,41.4,36.3,29.81,ESE,104,2.0,3.0,82,0.00,,,0.00,meteohub,2013-05-16 06:57:00,